Dove Creek, CO (81324)

1:39 AM MST on February 22, 2017 (GMT -0700)
Cahone (2.5 Miles NNE) | | Change Station

Elev 6870 ft 37.69 °N, 108.80 °W | Updated 31 seconds ago

Mostly Cloudy
Mostly Cloudy
40.5 °F
Feels Like 40 °F
N
1.0
Wind Variable Wind from South
Gusts 2.0 mph

Today
High -- | Low -- °F
--% Chance of Precip.
Yesterday
High -- | Low -- °F
Precip. -- in
Pressure 30.18 in
Visibility 10.0 miles
Clouds Clear
Windchill 40 °F
Dew Point 34 °F
Humidity 76%
Rainfall 0.00 in
Snow Depth Not available.
6:56 AM 6:02 PM
Waning Crescent, 19% visible
METAR KBDG 220835Z AUTO 13003KT 10SM CLR 06/03 A3018 RMK AO1 T00620026
Pressure 30.18 in
Visibility 10.0 miles
Clouds Clear
Windchill 40 °F
Dew Point 34 °F
Humidity 76%
Rainfall 0.00 in
Snow Depth Not available.
6:56 AM 6:02 PM
Waning Crescent, 19% visible
METAR KBDG 220835Z AUTO 13003KT 10SM CLR 06/03 A3018 RMK AO1 T00620026

Get Your Daily Forecast Email!

Thanks for signing up!

Be on the lookout for a verification email in your inbox.

You'll start receiving the daily forecast at 8 AM.

×

10-Day Weather Forecast

Almanac

Astronomy

Feb. 22, 2017 Rise Set
Actual Time
Civil Twilight
Nautical Twilight
Astronomical Twilight
Moon
Length of Visible Light
Length of Day
Tomorrow will be .
, % of the Moon is Illuminated

Today's Extremes

State Highs State Lows

Community

WunderPhotos

Upload Photos

1,962,540 photos uploaded!

WunderBlog® & News

Nearby

Air Quality

  Air Quality AQ Index Pollutant
Not available.

Snow Depth

Station Depth Elevation

Earthquake Activity

City Distance Mag. Time & Date
Minimum magnitude displayed is 2.5.

Coastal Water Temperatures

Place Temperature

Stations

Nearby Weather Stations

Station Location Temp. Windchill Dew Point Humidity Wind Precip. Elev Updated Type
                   

Watches & Warnings

There are currently no watches in effect.